sensor_id;sensor_type;location;lat;lon;timestamp;temperature;humidity
25468;DHT22;13384;24.794;110.498;2023-03-01T00:00:23;13.80;99.90
25468;DHT22;13384;24.794;110.498;2023-03-01T00:02:58;13.80;99.90
25468;DHT22;13384;24.794;110.498;2023-03-01T00:05:30;13.80;99.90
25468;DHT22;13384;24.794;110.498;2023-03-01T00:08:01;13.90;99.90
25468;DHT22;13384;24.794;110.498;2023-03-01T00:10:32;14.00;99.90
25468;DHT22;13384;24.794;110.498;2023-03-01T00:13:23;14.00;99.90
25468;DHT22;13384;24.794;110.498;2023-03-01T00:15:54;14.00;99.90
25468;DHT22;13384;24.794;110.498;2023-03-01T00:18:25;14.10;99.90
25468;DHT22;13384;24.794;110.498;2023-03-01T00:20:56;14.10;99.90
25468;DHT22;13384;24.794;110.498;2023-03-01T00:23:28;14.20;99.90
25468;DHT22;13384;24.794;110.498;2023-03-01T00:26:00;14.20;99.90
25468;DHT22;13384;24.794;110.498;2023-03-01T00:28:32;14.30;99.90
25468;DHT22;13384;24.794;110.498;2023-03-01T00:31:08;14.30;99.90
25468;DHT22;13384;24.794;110.498;2023-03-01T00:33:40;14.30;99.90
25468;DHT22;13384;24.794;110.498;2023-03-01T00:36:15;14.30;99.90
25468;DHT22;13384;24.794;110.498;2023-03-01T00:38:46;14.30;99.90
25468;DHT22;13384;24.794;110.498;2023-03-01T00:41:19;14.50;99.90
25468;DHT22;13384;24.794;110.498;2023-03-01T00:43:50;14.50;99.90
25468;DHT22;13384;24.794;110.498;2023-03-01T00:46:25;14.60;99.90
25468;DHT22;13384;24.794;110.498;2023-03-01T00:48:57;14.70;99.90
25468;DHT22;13384;24.794;110.498;2023-03-01T00:51:29;14.80;99.90
25468;DHT22;13384;24.794;110.498;2023-03-01T00:54:20;14.80;99.90
25468;DHT22;13384;24.794;110.498;2023-03-01T00:56:51;14.90;99.90
25468;DHT22;13384;24.794;110.498;2023-03-01T00:59:42;15.00;99.90
25468;DHT22;13384;24.794;110.498;2023-03-01T01:02:13;15.00;99.90
25468;DHT22;13384;24.794;110.498;2023-03-01T01:04:46;15.10;99.90
25468;DHT22;13384;24.794;110.498;2023-03-01T01:07:17;15.20;99.90
25468;DHT22;13384;24.794;110.498;2023-03-01T01:09:50;15.20;99.90
25468;DHT22;13384;24.794;110.498;2023-03-01T01:12:22;15.30;99.90
25468;DHT22;13384;24.794;110.498;2023-03-01T01:14:53;15.30;99.90
25468;DHT22;13384;24.794;110.498;2023-03-01T01:17:25;15.30;99.90
25468;DHT22;13384;24.794;110.498;2023-03-01T01:20:18;15.40;99.90
25468;DHT22;13384;24.794;110.498;2023-03-01T01:22:51;15.50;99.90
25468;DHT22;13384;24.794;110.498;2023-03-01T01:25:23;15.50;99.90
25468;DHT22;13384;24.794;110.498;2023-03-01T01:27:55;15.60;99.90
25468;DHT22;13384;24.794;110.498;2023-03-01T01:30:26;15.70;99.90
25468;DHT22;13384;24.794;110.498;2023-03-01T01:33:01;15.70;99.90
25468;DHT22;13384;24.794;110.498;2023-03-01T01:35:32;15.80;99.90
25468;DHT22;13384;24.794;110.498;2023-03-01T01:38:03;15.90;99.90
25468;DHT22;13384;24.794;110.498;2023-03-01T01:40:34;16.00;99.90
25468;DHT22;13384;24.794;110.498;2023-03-01T01:43:07;16.00;99.90
25468;DHT22;13384;24.794;110.498;2023-03-01T01:45:41;16.10;99.90
25468;DHT22;13384;24.794;110.498;2023-03-01T01:48:17;16.10;99.90
25468;DHT22;13384;24.794;110.498;2023-03-01T01:50:56;16.10;99.90
25468;DHT22;13384;24.794;110.498;2023-03-01T01:53:30;16.20;99.90
25468;DHT22;13384;24.794;110.498;2023-03-01T01:56:08;16.30;99.90
25468;DHT22;13384;24.794;110.498;2023-03-01T01:58:42;16.30;99.90
25468;DHT22;13384;24.794;110.498;2023-03-01T02:01:13;16.40;99.90
25468;DHT22;13384;24.794;110.498;2023-03-01T02:03:47;16.50;99.90
25468;DHT22;13384;24.794;110.498;2023-03-01T02:06:31;16.60;99.90
25468;DHT22;13384;24.794;110.498;2023-03-01T02:09:08;16.70;99.90
25468;DHT22;13384;24.794;110.498;2023-03-01T02:11:43;16.80;99.90
25468;DHT22;13384;24.794;110.498;2023-03-01T02:14:16;16.90;99.90
25468;DHT22;13384;24.794;110.498;2023-03-01T02:16:47;16.90;99.90
25468;DHT22;13384;24.794;110.498;2023-03-01T02:22:33;17.10;99.90
25468;DHT22;13384;24.794;110.498;2023-03-01T02:25:28;17.20;99.90
25468;DHT22;13384;24.794;110.498;2023-03-01T02:28:20;17.30;99.90
25468;DHT22;13384;24.794;110.498;2023-03-01T02:30:53;17.40;99.90
25468;DHT22;13384;24.794;110.498;2023-03-01T02:33:43;17.50;99.90
25468;DHT22;13384;24.794;110.498;2023-03-01T02:36:31;17.50;99.90
25468;DHT22;13384;24.794;110.498;2023-03-01T02:39:07;17.60;99.90
25468;DHT22;13384;24.794;110.498;2023-03-01T02:41:50;17.70;99.90
25468;DHT22;13384;24.794;110.498;2023-03-01T02:44:25;17.80;99.90
25468;DHT22;13384;24.794;110.498;2023-03-01T02:46:57;17.80;99.90
25468;DHT22;13384;24.794;110.498;2023-03-01T02:49:35;17.90;99.90
25468;DHT22;13384;24.794;110.498;2023-03-01T02:54:47;17.90;99.90
25468;DHT22;13384;24.794;110.498;2023-03-01T02:57:23;17.90;99.90
25468;DHT22;13384;24.794;110.498;2023-03-01T02:59:59;18.00;99.90
25468;DHT22;13384;24.794;110.498;2023-03-01T03:02:38;18.10;99.40
25468;DHT22;13384;24.794;110.498;2023-03-01T03:05:20;18.20;98.30
25468;DHT22;13384;24.794;110.498;2023-03-01T03:07:55;18.40;99.90
25468;DHT22;13384;24.794;110.498;2023-03-01T03:10:30;18.60;99.70
25468;DHT22;13384;24.794;110.498;2023-03-01T03:13:07;18.60;99.10
25468;DHT22;13384;24.794;110.498;2023-03-01T03:15:39;18.60;98.60
25468;DHT22;13384;24.794;110.498;2023-03-01T03:18:14;18.60;98.20
25468;DHT22;13384;24.794;110.498;2023-03-01T03:20:48;18.80;98.50
25468;DHT22;13384;24.794;110.498;2023-03-01T03:23:23;18.80;97.00
25468;DHT22;13384;24.794;110.498;2023-03-01T03:25:54;18.90;98.50
25468;DHT22;13384;24.794;110.498;2023-03-01T03:28:26;19.10;98.30
25468;DHT22;13384;24.794;110.498;2023-03-01T03:30:58;19.10;98.10
25468;DHT22;13384;24.794;110.498;2023-03-01T03:33:33;19.20;97.70
25468;DHT22;13384;24.794;110.498;2023-03-01T03:36:05;19.40;98.00
25468;DHT22;13384;24.794;110.498;2023-03-01T03:38:36;19.60;97.60
25468;DHT22;13384;24.794;110.498;2023-03-01T03:41:08;19.50;96.70
25468;DHT22;13384;24.794;110.498;2023-03-01T03:43:40;19.50;92.80
25468;DHT22;13384;24.794;110.498;2023-03-01T03:46:16;19.60;96.80
25468;DHT22;13384;24.794;110.498;2023-03-01T03:48:48;19.90;96.20
25468;DHT22;13384;24.794;110.498;2023-03-01T03:51:20;19.90;95.70
25468;DHT22;13384;24.794;110.498;2023-03-01T03:53:53;20.10;95.30
25468;DHT22;13384;24.794;110.498;2023-03-01T03:56:24;20.30;95.20
25468;DHT22;13384;24.794;110.498;2023-03-01T03:58:56;20.40;94.60
25468;DHT22;13384;24.794;110.498;2023-03-01T04:01:27;20.50;94.20
25468;DHT22;13384;24.794;110.498;2023-03-01T04:03:59;20.70;94.20
25468;DHT22;13384;24.794;110.498;2023-03-01T04:06:35;20.70;92.40
25468;DHT22;13384;24.794;110.498;2023-03-01T04:09:06;20.80;93.90
25468;DHT22;13384;24.794;110.498;2023-03-01T04:11:48;21.00;94.20
25468;DHT22;13384;24.794;110.498;2023-03-01T04:14:19;21.00;92.80
25468;DHT22;13384;24.794;110.498;2023-03-01T04:16:50;21.10;92.50
25468;DHT22;13384;24.794;110.498;2023-03-01T04:19:21;21.10;92.20
25468;DHT22;13384;24.794;110.498;2023-03-01T04:21:53;21.10;92.80
25468;DHT22;13384;24.794;110.498;2023-03-01T04:24:25;21.20;92.40
25468;DHT22;13384;24.794;110.498;2023-03-01T04:26:56;21.30;91.80
25468;DHT22;13384;24.794;110.498;2023-03-01T04:29:30;21.30;91.70
25468;DHT22;13384;24.794;110.498;2023-03-01T04:32:00;21.40;92.00
25468;DHT22;13384;24.794;110.498;2023-03-01T04:34:33;21.40;91.60
25468;DHT22;13384;24.794;110.498;2023-03-01T04:37:04;21.50;91.40
25468;DHT22;13384;24.794;110.498;2023-03-01T04:39:36;21.50;90.90
25468;DHT22;13384;24.794;110.498;2023-03-01T04:42:16;21.50;90.70
25468;DHT22;13384;24.794;110.498;2023-03-01T04:44:52;21.50;90.20
25468;DHT22;13384;24.794;110.498;2023-03-01T04:47:24;21.40;88.90
25468;DHT22;13384;24.794;110.498;2023-03-01T04:49:55;21.60;91.10
25468;DHT22;13384;24.794;110.498;2023-03-01T04:52:27;21.80;90.70
25468;DHT22;13384;24.794;110.498;2023-03-01T04:54:58;21.90;90.70
25468;DHT22;13384;24.794;110.498;2023-03-01T04:57:30;22.00;90.40
25468;DHT22;13384;24.794;110.498;2023-03-01T05:00:08;22.10;90.40
25468;DHT22;13384;24.794;110.498;2023-03-01T05:02:51;22.20;89.60
25468;DHT22;13384;24.794;110.498;2023-03-01T05:05:36;22.00;90.10
25468;DHT22;13384;24.794;110.498;2023-03-01T05:08:27;22.20;90.00
25468;DHT22;13384;24.794;110.498;2023-03-01T05:10:58;22.20;88.50
25468;DHT22;13384;24.794;110.498;2023-03-01T05:13:29;22.30;88.30
25468;DHT22;13384;24.794;110.498;2023-03-01T05:16:01;22.40;88.40
25468;DHT22;13384;24.794;110.498;2023-03-01T05:18:34;22.40;87.90
25468;DHT22;13384;24.794;110.498;2023-03-01T05:21:08;22.50;87.50
25468;DHT22;13384;24.794;110.498;2023-03-01T05:23:40;22.50;86.40
25468;DHT22;13384;24.794;110.498;2023-03-01T05:26:12;22.60;86.70
25468;DHT22;13384;24.794;110.498;2023-03-01T05:28:55;22.60;86.20
25468;DHT22;13384;24.794;110.498;2023-03-01T05:31:29;22.80;86.30
25468;DHT22;13384;24.794;110.498;2023-03-01T05:34:01;22.90;85.40
25468;DHT22;13384;24.794;110.498;2023-03-01T05:36:33;22.80;84.60
25468;DHT22;13384;24.794;110.498;2023-03-01T05:39:04;22.60;83.90
25468;DHT22;13384;24.794;110.498;2023-03-01T05:41:36;22.70;84.30
25468;DHT22;13384;24.794;110.498;2023-03-01T05:44:07;22.70;83.40
25468;DHT22;13384;24.794;110.498;2023-03-01T05:46:38;22.70;81.60
25468;DHT22;13384;24.794;110.498;2023-03-01T05:49:10;22.50;82.60
25468;DHT22;13384;24.794;110.498;2023-03-01T05:51:42;22.60;81.80
25468;DHT22;13384;24.794;110.498;2023-03-01T05:54:13;22.80;82.60
25468;DHT22;13384;24.794;110.498;2023-03-01T05:56:45;22.90;82.50
25468;DHT22;13384;24.794;110.498;2023-03-01T05:59:15;22.80;81.10
25468;DHT22;13384;24.794;110.498;2023-03-01T06:01:47;22.90;81.30
25468;DHT22;13384;24.794;110.498;2023-03-01T06:04:40;22.90;78.00
25468;DHT22;13384;24.794;110.498;2023-03-01T06:07:12;22.90;80.60
25468;DHT22;13384;24.794;110.498;2023-03-01T06:09:43;22.90;80.10
25468;DHT22;13384;24.794;110.498;2023-03-01T06:12:15;22.90;80.20
25468;DHT22;13384;24.794;110.498;2023-03-01T06:14:47;23.10;80.90
25468;DHT22;13384;24.794;110.498;2023-03-01T06:17:18;23.20;79.90
25468;DHT22;13384;24.794;110.498;2023-03-01T06:19:53;23.00;78.80
25468;DHT22;13384;24.794;110.498;2023-03-01T06:22:24;23.00;78.40
25468;DHT22;13384;24.794;110.498;2023-03-01T06:24:55;23.00;79.10
25468;DHT22;13384;24.794;110.498;2023-03-01T06:27:28;23.00;79.60
25468;DHT22;13384;24.794;110.498;2023-03-01T06:29:59;22.90;78.70
25468;DHT22;13384;24.794;110.498;2023-03-01T06:32:37;23.00;78.70
25468;DHT22;13384;24.794;110.498;2023-03-01T06:35:14;23.10;78.10
25468;DHT22;13384;24.794;110.498;2023-03-01T06:37:48;22.90;78.30
25468;DHT22;13384;24.794;110.498;2023-03-01T06:40:19;22.70;79.20
25468;DHT22;13384;24.794;110.498;2023-03-01T06:42:51;22.70;79.20
25468;DHT22;13384;24.794;110.498;2023-03-01T06:45:23;22.70;79.10
25468;DHT22;13384;24.794;110.498;2023-03-01T06:48:05;22.70;78.00
25468;DHT22;13384;24.794;110.498;2023-03-01T06:50:37;22.80;77.30
25468;DHT22;13384;24.794;110.498;2023-03-01T06:53:12;22.80;78.30
25468;DHT22;13384;24.794;110.498;2023-03-01T06:55:58;22.80;78.00
25468;DHT22;13384;24.794;110.498;2023-03-01T06:58:32;22.70;78.20
25468;DHT22;13384;24.794;110.498;2023-03-01T07:01:08;22.50;78.90
25468;DHT22;13384;24.794;110.498;2023-03-01T07:03:39;22.70;78.50
25468;DHT22;13384;24.794;110.498;2023-03-01T07:06:10;22.80;77.90
25468;DHT22;13384;24.794;110.498;2023-03-01T07:08:44;22.60;77.80
25468;DHT22;13384;24.794;110.498;2023-03-01T07:11:15;22.60;78.80
25468;DHT22;13384;24.794;110.498;2023-03-01T07:13:47;22.80;78.50
25468;DHT22;13384;24.794;110.498;2023-03-01T07:16:18;22.80;77.80
25468;DHT22;13384;24.794;110.498;2023-03-01T07:18:50;22.80;77.30
25468;DHT22;13384;24.794;110.498;2023-03-01T07:21:22;23.00;77.00
25468;DHT22;13384;24.794;110.498;2023-03-01T07:23:53;22.90;76.80
25468;DHT22;13384;24.794;110.498;2023-03-01T07:26:24;23.00;76.80
25468;DHT22;13384;24.794;110.498;2023-03-01T07:28:55;23.00;76.20
25468;DHT22;13384;24.794;110.498;2023-03-01T07:31:27;23.00;76.50
25468;DHT22;13384;24.794;110.498;2023-03-01T07:33:58;23.00;76.70
25468;DHT22;13384;24.794;110.498;2023-03-01T07:36:45;23.10;76.50
25468;DHT22;13384;24.794;110.498;2023-03-01T07:39:19;23.00;76.60
25468;DHT22;13384;24.794;110.498;2023-03-01T07:41:51;22.70;76.10
25468;DHT22;13384;24.794;110.498;2023-03-01T07:44:23;22.60;77.40
25468;DHT22;13384;24.794;110.498;2023-03-01T07:46:54;22.50;76.90
25468;DHT22;13384;24.794;110.498;2023-03-01T07:49:26;22.40;77.20
25468;DHT22;13384;24.794;110.498;2023-03-01T07:51:58;22.40;77.70
25468;DHT22;13384;24.794;110.498;2023-03-01T07:54:30;22.30;77.20
25468;DHT22;13384;24.794;110.498;2023-03-01T07:57:01;22.30;77.90
25468;DHT22;13384;24.794;110.498;2023-03-01T07:59:32;22.30;78.30
25468;DHT22;13384;24.794;110.498;2023-03-01T08:02:04;22.20;77.40
25468;DHT22;13384;24.794;110.498;2023-03-01T08:04:35;22.10;78.60
25468;DHT22;13384;24.794;110.498;2023-03-01T08:07:06;22.00;78.50
25468;DHT22;13384;24.794;110.498;2023-03-01T08:09:38;22.00;77.90
25468;DHT22;13384;24.794;110.498;2023-03-01T08:12:09;22.00;78.80
25468;DHT22;13384;24.794;110.498;2023-03-01T08:14:40;22.00;79.20
25468;DHT22;13384;24.794;110.498;2023-03-01T08:17:31;21.90;79.40
25468;DHT22;13384;24.794;110.498;2023-03-01T08:20:03;21.90;79.90
25468;DHT22;13384;24.794;110.498;2023-03-01T08:22:36;21.90;79.50
25468;DHT22;13384;24.794;110.498;2023-03-01T08:25:08;21.80;79.00
25468;DHT22;13384;24.794;110.498;2023-03-01T08:27:39;21.80;79.00
25468;DHT22;13384;24.794;110.498;2023-03-01T08:30:10;21.80;79.30
25468;DHT22;13384;24.794;110.498;2023-03-01T10:30:41;19.80;87.30
25468;DHT22;13384;24.794;110.498;2023-03-01T10:33:22;19.70;87.00
25468;DHT22;13384;24.794;110.498;2023-03-01T10:35:54;19.80;87.20
25468;DHT22;13384;24.794;110.498;2023-03-01T10:38:25;19.70;87.60
25468;DHT22;13384;24.794;110.498;2023-03-01T10:41:14;19.70;87.00
25468;DHT22;13384;24.794;110.498;2023-03-01T10:43:51;19.70;87.50
25468;DHT22;13384;24.794;110.498;2023-03-01T10:46:35;19.60;87.70
25468;DHT22;13384;24.794;110.498;2023-03-01T10:51:44;19.60;86.70
25468;DHT22;13384;24.794;110.498;2023-03-01T10:56:58;19.60;86.60
25468;DHT22;13384;24.794;110.498;2023-03-01T10:59:36;19.60;88.10
25468;DHT22;13384;24.794;110.498;2023-03-01T11:02:17;19.60;87.30
25468;DHT22;13384;24.794;110.498;2023-03-01T11:05:00;19.50;87.70
25468;DHT22;13384;24.794;110.498;2023-03-01T11:07:48;19.40;87.80
25468;DHT22;13384;24.794;110.498;2023-03-01T11:10:22;19.40;87.90
25468;DHT22;13384;24.794;110.498;2023-03-01T11:13:18;19.30;88.10
25468;DHT22;13384;24.794;110.498;2023-03-01T11:16:03;19.30;88.50
25468;DHT22;13384;24.794;110.498;2023-03-01T11:18:34;19.30;87.80
25468;DHT22;13384;24.794;110.498;2023-03-01T11:21:17;19.20;88.10
25468;DHT22;13384;24.794;110.498;2023-03-01T11:24:12;19.30;88.00
25468;DHT22;13384;24.794;110.498;2023-03-01T11:26:50;19.30;87.60
25468;DHT22;13384;24.794;110.498;2023-03-01T11:29:37;19.30;87.90
25468;DHT22;13384;24.794;110.498;2023-03-01T11:32:17;19.30;88.30
25468;DHT22;13384;24.794;110.498;2023-03-01T11:38:11;19.20;87.80
25468;DHT22;13384;24.794;110.498;2023-03-01T11:41:01;19.20;87.40
25468;DHT22;13384;24.794;110.498;2023-03-01T11:43:56;19.20;87.50
25468;DHT22;13384;24.794;110.498;2023-03-01T12:06:18;18.90;87.20
25468;DHT22;13384;24.794;110.498;2023-03-01T12:38:31;18.60;89.80
25468;DHT22;13384;24.794;110.498;2023-03-01T12:52:59;18.50;89.40
25468;DHT22;13384;24.794;110.498;2023-03-01T12:55:39;18.50;89.00
25468;DHT22;13384;24.794;110.498;2023-03-01T13:07:34;18.60;88.10
25468;DHT22;13384;24.794;110.498;2023-03-01T13:10:20;18.60;87.40
25468;DHT22;13384;24.794;110.498;2023-03-01T13:15:50;18.60;88.30
25468;DHT22;13384;24.794;110.498;2023-03-01T13:20:59;18.50;89.00
25468;DHT22;13384;24.794;110.498;2023-03-01T13:23:32;18.40;89.00
25468;DHT22;13384;24.794;110.498;2023-03-01T13:26:14;18.40;88.90
25468;DHT22;13384;24.794;110.498;2023-03-01T13:28:48;18.40;89.40
25468;DHT22;13384;24.794;110.498;2023-03-01T13:34:01;18.30;90.30
25468;DHT22;13384;24.794;110.498;2023-03-01T13:42:02;18.20;89.00
25468;DHT22;13384;24.794;110.498;2023-03-01T13:50:01;18.10;90.00
25468;DHT22;13384;24.794;110.498;2023-03-01T13:52:40;18.20;89.60
25468;DHT22;13384;24.794;110.498;2023-03-01T13:58:30;18.00;90.20
25468;DHT22;13384;24.794;110.498;2023-03-01T14:01:04;18.00;90.30
25468;DHT22;13384;24.794;110.498;2023-03-01T14:03:41;18.00;90.20
25468;DHT22;13384;24.794;110.498;2023-03-01T14:06:16;18.00;89.80
25468;DHT22;13384;24.794;110.498;2023-03-01T14:08:52;18.00;90.20
25468;DHT22;13384;24.794;110.498;2023-03-01T14:18:29;18.00;90.10
25468;DHT22;13384;24.794;110.498;2023-03-01T14:21:08;18.00;90.20
25468;DHT22;13384;24.794;110.498;2023-03-01T14:23:40;18.00;89.30
25468;DHT22;13384;24.794;110.498;2023-03-01T14:26:14;18.00;89.30
25468;DHT22;13384;24.794;110.498;2023-03-01T14:28:51;18.00;89.30
25468;DHT22;13384;24.794;110.498;2023-03-01T14:31:38;18.00;89.30
25468;DHT22;13384;24.794;110.498;2023-03-01T14:34:24;18.00;89.50
25468;DHT22;13384;24.794;110.498;2023-03-01T14:36:57;18.00;88.50
25468;DHT22;13384;24.794;110.498;2023-03-01T14:39:40;18.00;89.30
25468;DHT22;13384;24.794;110.498;2023-03-01T14:42:14;18.00;89.10
25468;DHT22;13384;24.794;110.498;2023-03-01T14:44:49;18.00;89.40
25468;DHT22;13384;24.794;110.498;2023-03-01T14:47:30;18.00;90.00
25468;DHT22;13384;24.794;110.498;2023-03-01T14:50:26;18.00;89.10
25468;DHT22;13384;24.794;110.498;2023-03-01T14:53:03;17.90;89.00
25468;DHT22;13384;24.794;110.498;2023-03-01T14:55:42;17.90;89.20
25468;DHT22;13384;24.794;110.498;2023-03-01T14:58:19;17.80;90.50
25468;DHT22;13384;24.794;110.498;2023-03-01T15:01:03;17.70;90.00
25468;DHT22;13384;24.794;110.498;2023-03-01T15:03:41;17.70;90.00
25468;DHT22;13384;24.794;110.498;2023-03-01T15:06:39;17.70;90.10
25468;DHT22;13384;24.794;110.498;2023-03-01T15:09:16;17.60;90.20
25468;DHT22;13384;24.794;110.498;2023-03-01T15:11:50;17.60;90.50
25468;DHT22;13384;24.794;110.498;2023-03-01T15:14:29;17.50;90.30
25468;DHT22;13384;24.794;110.498;2023-03-01T15:17:33;17.50;89.20
25468;DHT22;13384;24.794;110.498;2023-03-01T15:20:15;17.40;90.90
25468;DHT22;13384;24.794;110.498;2023-03-01T15:22:53;17.30;90.70
25468;DHT22;13384;24.794;110.498;2023-03-01T15:25:29;17.30;90.70
25468;DHT22;13384;24.794;110.498;2023-03-01T15:28:02;17.30;90.80
25468;DHT22;13384;24.794;110.498;2023-03-01T15:30:35;17.20;90.80
25468;DHT22;13384;24.794;110.498;2023-03-01T15:33:36;17.20;90.90
25468;DHT22;13384;24.794;110.498;2023-03-01T15:39:01;17.20;91.20
25468;DHT22;13384;24.794;110.498;2023-03-01T15:41:52;17.10;90.50
25468;DHT22;13384;24.794;110.498;2023-03-01T15:44:31;17.10;91.00
25468;DHT22;13384;24.794;110.498;2023-03-01T15:47:30;17.00;90.90
25468;DHT22;13384;24.794;110.498;2023-03-01T15:50:03;17.00;91.20
25468;DHT22;13384;24.794;110.498;2023-03-01T15:52:44;17.00;91.20
25468;DHT22;13384;24.794;110.498;2023-03-01T15:55:26;16.90;91.10
25468;DHT22;13384;24.794;110.498;2023-03-01T15:58:05;16.90;91.50
25468;DHT22;13384;24.794;110.498;2023-03-01T16:00:43;16.80;91.50
25468;DHT22;13384;24.794;110.498;2023-03-01T16:03:28;16.70;90.80
25468;DHT22;13384;24.794;110.498;2023-03-01T16:06:21;16.80;91.50
25468;DHT22;13384;24.794;110.498;2023-03-01T16:09:14;16.70;91.40
25468;DHT22;13384;24.794;110.498;2023-03-01T16:11:47;16.70;91.30
25468;DHT22;13384;24.794;110.498;2023-03-01T16:14:24;16.60;91.40
25468;DHT22;13384;24.794;110.498;2023-03-01T16:17:04;16.60;91.60
25468;DHT22;13384;24.794;110.498;2023-03-01T16:19:37;16.60;91.60
25468;DHT22;13384;24.794;110.498;2023-03-01T16:22:31;16.60;91.70
25468;DHT22;13384;24.794;110.498;2023-03-01T16:25:08;16.50;91.70
25468;DHT22;13384;24.794;110.498;2023-03-01T16:28:01;16.50;91.80
25468;DHT22;13384;24.794;110.498;2023-03-01T16:30:45;16.40;91.60
25468;DHT22;13384;24.794;110.498;2023-03-01T16:33:24;16.40;91.60
25468;DHT22;13384;24.794;110.498;2023-03-01T16:36:20;16.40;91.70
25468;DHT22;13384;24.794;110.498;2023-03-01T16:38:58;16.40;91.60
25468;DHT22;13384;24.794;110.498;2023-03-01T16:41:34;16.30;91.40
25468;DHT22;13384;24.794;110.498;2023-03-01T16:44:07;16.40;91.60
25468;DHT22;13384;24.794;110.498;2023-03-01T16:46:42;16.30;91.60
25468;DHT22;13384;24.794;110.498;2023-03-01T16:49:44;16.20;91.60
25468;DHT22;13384;24.794;110.498;2023-03-01T16:52:40;16.20;91.80
25468;DHT22;13384;24.794;110.498;2023-03-01T16:55:13;16.20;91.90
25468;DHT22;13384;24.794;110.498;2023-03-01T16:57:45;16.20;91.70
25468;DHT22;13384;24.794;110.498;2023-03-01T17:00:19;16.20;91.60
25468;DHT22;13384;24.794;110.498;2023-03-01T17:02:52;16.20;91.70
25468;DHT22;13384;24.794;110.498;2023-03-01T17:05:28;16.10;91.70
25468;DHT22;13384;24.794;110.498;2023-03-01T17:08:09;16.10;91.60
25468;DHT22;13384;24.794;110.498;2023-03-01T17:10:42;16.00;91.80
25468;DHT22;13384;24.794;110.498;2023-03-01T17:13:16;16.00;91.70
25468;DHT22;13384;24.794;110.498;2023-03-01T17:15:49;16.00;91.90
25468;DHT22;13384;24.794;110.498;2023-03-01T17:18:41;16.00;91.90
25468;DHT22;13384;24.794;110.498;2023-03-01T17:21:13;16.00;91.90
25468;DHT22;13384;24.794;110.498;2023-03-01T17:23:45;15.90;91.90
25468;DHT22;13384;24.794;110.498;2023-03-01T17:26:17;15.90;91.90
25468;DHT22;13384;24.794;110.498;2023-03-01T17:29:07;15.90;92.10
25468;DHT22;13384;24.794;110.498;2023-03-01T17:31:39;15.90;92.00
25468;DHT22;13384;24.794;110.498;2023-03-01T17:34:10;15.90;92.20
25468;DHT22;13384;24.794;110.498;2023-03-01T17:36:41;15.90;92.00
25468;DHT22;13384;24.794;110.498;2023-03-01T17:39:14;15.80;92.20
25468;DHT22;13384;24.794;110.498;2023-03-01T17:41:46;15.80;92.20
25468;DHT22;13384;24.794;110.498;2023-03-01T17:44:17;15.80;92.30
25468;DHT22;13384;24.794;110.498;2023-03-01T17:46:49;15.80;92.50
25468;DHT22;13384;24.794;110.498;2023-03-01T17:49:20;15.70;92.60
25468;DHT22;13384;24.794;110.498;2023-03-01T17:51:51;15.70;92.90
25468;DHT22;13384;24.794;110.498;2023-03-01T17:54:23;15.60;92.80
25468;DHT22;13384;24.794;110.498;2023-03-01T17:56:54;15.60;92.80
25468;DHT22;13384;24.794;110.498;2023-03-01T17:59:28;15.50;93.20
25468;DHT22;13384;24.794;110.498;2023-03-01T18:02:00;15.50;92.90
25468;DHT22;13384;24.794;110.498;2023-03-01T18:04:31;15.60;92.10
25468;DHT22;13384;24.794;110.498;2023-03-01T18:07:03;15.60;92.60
25468;DHT22;13384;24.794;110.498;2023-03-01T18:09:34;15.60;92.60
25468;DHT22;13384;24.794;110.498;2023-03-01T18:12:05;15.60;92.70
25468;DHT22;13384;24.794;110.498;2023-03-01T18:14:37;15.60;92.70
25468;DHT22;13384;24.794;110.498;2023-03-01T18:17:08;15.60;92.40
25468;DHT22;13384;24.794;110.498;2023-03-01T18:19:41;15.50;92.90
25468;DHT22;13384;24.794;110.498;2023-03-01T18:22:13;15.50;92.90
25468;DHT22;13384;24.794;110.498;2023-03-01T18:24:44;15.40;92.80
25468;DHT22;13384;24.794;110.498;2023-03-01T18:27:16;15.50;93.00
25468;DHT22;13384;24.794;110.498;2023-03-01T18:29:47;15.50;92.90
25468;DHT22;13384;24.794;110.498;2023-03-01T18:32:18;15.40;93.20
25468;DHT22;13384;24.794;110.498;2023-03-01T18:34:50;15.40;92.70
25468;DHT22;13384;24.794;110.498;2023-03-01T18:37:21;15.40;92.70
25468;DHT22;13384;24.794;110.498;2023-03-01T18:39:53;15.40;92.90
25468;DHT22;13384;24.794;110.498;2023-03-01T18:42:24;15.40;92.80
25468;DHT22;13384;24.794;110.498;2023-03-01T18:44:55;15.40;92.80
25468;DHT22;13384;24.794;110.498;2023-03-01T18:47:26;15.30;93.10
25468;DHT22;13384;24.794;110.498;2023-03-01T18:49:57;15.30;92.50
25468;DHT22;13384;24.794;110.498;2023-03-01T18:52:28;15.30;92.80
25468;DHT22;13384;24.794;110.498;2023-03-01T18:55:00;15.30;92.90
25468;DHT22;13384;24.794;110.498;2023-03-01T18:57:31;15.30;93.20
25468;DHT22;13384;24.794;110.498;2023-03-01T19:00:03;15.30;93.10
25468;DHT22;13384;24.794;110.498;2023-03-01T19:02:34;15.30;92.90
25468;DHT22;13384;24.794;110.498;2023-03-01T19:05:06;15.20;92.90
25468;DHT22;13384;24.794;110.498;2023-03-01T19:07:37;15.20;93.10
25468;DHT22;13384;24.794;110.498;2023-03-01T19:10:09;15.20;93.40
25468;DHT22;13384;24.794;110.498;2023-03-01T19:12:40;15.20;93.10
25468;DHT22;13384;24.794;110.498;2023-03-01T19:15:11;15.20;93.20
25468;DHT22;13384;24.794;110.498;2023-03-01T19:17:43;15.20;93.10
25468;DHT22;13384;24.794;110.498;2023-03-01T19:20:14;15.10;93.30
25468;DHT22;13384;24.794;110.498;2023-03-01T19:22:45;15.10;93.80
25468;DHT22;13384;24.794;110.498;2023-03-01T19:25:16;15.00;93.80
25468;DHT22;13384;24.794;110.498;2023-03-01T19:27:47;15.10;93.80
25468;DHT22;13384;24.794;110.498;2023-03-01T19:30:18;15.00;93.80
25468;DHT22;13384;24.794;110.498;2023-03-01T19:32:49;15.00;93.80
25468;DHT22;13384;24.794;110.498;2023-03-01T19:35:21;15.00;94.20
25468;DHT22;13384;24.794;110.498;2023-03-01T19:37:52;15.00;93.80
25468;DHT22;13384;24.794;110.498;2023-03-01T19:40:23;14.90;94.10
25468;DHT22;13384;24.794;110.498;2023-03-01T19:42:55;14.90;93.90
25468;DHT22;13384;24.794;110.498;2023-03-01T19:45:25;14.90;94.20
25468;DHT22;13384;24.794;110.498;2023-03-01T19:48:01;14.90;94.30